Time,TemperatureF,DewpointF,PressureIn,WindDirection,WindDirectionDegrees,WindSpeedMPH,WindSpeedGustMPH,Humidity,HourlyPrecipIn,Conditions,Clouds,dailyrainin,SolarRadiationWatts/m^2,SoftwareType,DateUTC
2017-11-18 00:04:00,40.0,37.9,30.33,North,32767,0.0,0.0,92,0.00,,,0.00,0,Wunderground v.1.15,2017-11-18 00:04:00,
2017-11-18 00:14:00,40.1,38.0,30.33,North,32767,0.0,0.0,92,0.00,,,0.00,0,Wunderground v.1.15,2017-11-18 00:14:00,
2017-11-18 00:24:00,40.2,37.8,30.33,North,32767,0.0,0.0,91,0.00,,,0.00,0,Wunderground v.1.15,2017-11-18 00:24:00,
2017-11-18 00:34:00,40.3,37.9,30.32,North,32767,0.0,0.0,91,0.00,,,0.00,0,Wunderground v.1.15,2017-11-18 00:34:00,
2017-11-18 00:44:00,40.3,37.9,30.32,North,32767,0.0,0.0,91,0.00,,,0.00,0,Wunderground v.1.15,2017-11-18 00:44:00,
2017-11-18 00:54:00,40.4,38.0,30.32,North,32767,0.0,0.0,91,0.00,,,0.00,0,Wunderground v.1.15,2017-11-18 00:54:00,
2017-11-18 01:04:00,40.4,38.0,30.32,North,32767,0.0,0.0,91,0.00,,,0.00,0,Wunderground v.1.15,2017-11-18 01:04:00,
2017-11-18 01:14:00,40.4,38.0,30.32,North,32767,0.0,0.0,91,0.00,,,0.00,0,Wunderground v.1.15,2017-11-18 01:14:00,
2017-11-18 01:24:00,40.5,38.1,30.32,North,32767,0.0,0.0,91,0.00,,,0.00,0,Wunderground v.1.15,2017-11-18 01:24:00,
2017-11-18 01:34:00,40.8,38.4,30.32,North,32767,0.0,0.0,91,0.00,,,0.00,0,Wunderground v.1.15,2017-11-18 01:34:00,
2017-11-18 01:44:00,41.0,38.3,30.32,North,32767,0.0,0.0,90,0.00,,,0.00,0,Wunderground v.1.15,2017-11-18 01:44:00,
2017-11-18 01:54:00,41.1,38.4,30.31,North,32767,0.0,0.0,90,0.00,,,0.00,0,Wunderground v.1.15,2017-11-18 01:54:00,
2017-11-18 02:04:00,41.2,38.2,30.31,North,32767,0.0,0.0,89,0.00,,,0.00,0,Wunderground v.1.15,2017-11-18 02:04:00,
2017-11-18 02:14:00,41.3,38.3,30.32,North,32767,0.0,0.0,89,0.00,,,0.00,0,Wunderground v.1.15,2017-11-18 02:14:00,
2017-11-18 02:24:00,41.2,38.2,30.31,North,32767,0.0,0.0,89,0.00,,,0.00,0,Wunderground v.1.15,2017-11-18 02:24:00,
2017-11-18 02:34:00,41.0,38.0,30.31,North,32767,0.0,0.0,89,0.00,,,0.00,0,Wunderground v.1.15,2017-11-18 02:34:00,
2017-11-18 02:44:00,40.7,37.7,30.31,North,32767,0.0,0.0,89,0.00,,,0.00,0,Wunderground v.1.15,2017-11-18 02:44:00,
2017-11-18 02:54:00,40.2,37.2,30.30,North,32767,0.0,0.0,89,0.00,,,0.00,0,Wunderground v.1.15,2017-11-18 02:54:00,
2017-11-18 03:04:00,39.6,36.6,30.30,North,32767,0.0,0.0,89,0.00,,,0.00,0,Wunderground v.1.15,2017-11-18 03:04:00,
2017-11-18 03:24:00,38.4,35.7,30.29,North,32767,0.0,0.0,90,0.00,,,0.00,0,Wunderground v.1.15,2017-11-18 03:24:00,
2017-11-18 03:34:00,38.0,35.6,30.29,North,32767,0.0,0.0,91,0.00,,,0.00,0,Wunderground v.1.15,2017-11-18 03:34:00,
2017-11-18 03:44:00,37.6,35.5,30.29,North,32767,0.0,0.0,92,0.00,,,0.00,0,Wunderground v.1.15,2017-11-18 03:44:00,
2017-11-18 03:54:00,37.4,35.3,30.29,North,32767,0.0,0.0,92,0.00,,,0.00,0,Wunderground v.1.15,2017-11-18 03:54:00,
2017-11-18 04:04:00,37.5,35.7,30.29,North,32767,0.0,0.0,93,0.00,,,0.00,0,Wunderground v.1.15,2017-11-18 04:04:00,
2017-11-18 04:14:00,37.7,36.1,30.29,North,32767,0.0,0.0,94,0.00,,,0.00,0,Wunderground v.1.15,2017-11-18 04:14:00,
2017-11-18 04:24:00,38.0,36.4,30.29,North,32767,0.0,0.0,94,0.00,,,0.00,0,Wunderground v.1.15,2017-11-18 04:24:00,
2017-11-18 04:34:00,38.3,36.5,30.28,North,32767,0.0,0.0,93,0.00,,,0.00,0,Wunderground v.1.15,2017-11-18 04:34:00,
2017-11-18 04:44:00,38.6,36.8,30.28,North,32767,0.0,0.0,93,0.00,,,0.00,0,Wunderground v.1.15,2017-11-18 04:44:00,
2017-11-18 04:54:00,39.1,37.2,30.28,North,32767,0.0,0.0,93,0.00,,,0.00,0,Wunderground v.1.15,2017-11-18 04:54:00,
2017-11-18 05:04:00,39.5,37.4,30.28,North,32767,0.0,0.0,92,0.00,,,0.00,0,Wunderground v.1.15,2017-11-18 05:04:00,
2017-11-18 05:14:00,39.8,37.7,30.28,North,32767,0.0,0.0,92,0.00,,,0.00,0,Wunderground v.1.15,2017-11-18 05:14:00,
2017-11-18 05:24:00,40.0,37.6,30.28,North,32767,0.0,0.0,91,0.00,,,0.00,0,Wunderground v.1.15,2017-11-18 05:24:00,
2017-11-18 05:34:00,40.2,37.8,30.27,North,32767,0.0,0.0,91,0.00,,,0.00,0,Wunderground v.1.15,2017-11-18 05:34:00,
2017-11-18 05:44:00,40.4,38.0,30.27,North,32767,0.0,0.0,91,0.00,,,0.00,0,Wunderground v.1.15,2017-11-18 05:44:00,
2017-11-18 05:54:00,40.6,38.2,30.27,North,32767,0.0,0.0,91,0.00,,,0.00,0,Wunderground v.1.15,2017-11-18 05:54:00,
2017-11-18 06:04:00,40.8,38.4,30.27,North,32767,0.0,0.0,91,0.00,,,0.00,0,Wunderground v.1.15,2017-11-18 06:04:00,
2017-11-18 06:14:00,41.3,39.2,30.26,North,32767,0.0,0.0,92,0.00,,,0.00,0,Wunderground v.1.15,2017-11-18 06:14:00,
2017-11-18 06:24:00,41.8,39.6,30.26,North,32767,0.0,0.0,92,0.00,,,0.00,0,Wunderground v.1.15,2017-11-18 06:24:00,
2017-11-18 06:34:00,42.1,39.9,30.26,North,32767,0.0,0.0,92,0.00,,,0.00,0,Wunderground v.1.15,2017-11-18 06:34:00,
2017-11-18 06:44:00,42.5,40.3,30.26,North,32767,0.0,0.0,92,0.00,,,0.00,0,Wunderground v.1.15,2017-11-18 06:44:00,
2017-11-18 06:54:00,42.7,40.5,30.26,North,32767,0.0,0.0,92,0.00,,,0.00,0,Wunderground v.1.15,2017-11-18 06:54:00,
2017-11-18 07:04:00,42.8,40.6,30.25,North,32767,0.0,0.0,92,0.00,,,0.00,0,Wunderground v.1.15,2017-11-18 07:04:00,
2017-11-18 07:14:00,43.0,40.8,30.25,North,32767,0.0,0.0,92,0.00,,,0.00,0,Wunderground v.1.15,2017-11-18 07:14:00,
2017-11-18 07:24:00,43.1,40.9,30.25,North,32767,0.0,0.0,92,0.00,,,0.00,5,Wunderground v.1.15,2017-11-18 07:24:00,
2017-11-18 07:34:00,43.1,40.9,30.26,North,32767,0.0,0.0,92,0.00,,,0.00,5,Wunderground v.1.15,2017-11-18 07:34:00,
2017-11-18 07:44:00,43.3,41.1,30.26,North,32767,0.0,0.0,92,0.00,,,0.00,9,Wunderground v.1.15,2017-11-18 07:44:00,
2017-11-18 07:54:00,43.6,41.4,30.25,North,32767,0.0,0.0,92,0.00,,,0.00,14,Wunderground v.1.15,2017-11-18 07:54:00,
2017-11-18 08:04:00,43.7,41.2,30.25,North,32767,0.0,0.0,91,0.00,,,0.00,25,Wunderground v.1.15,2017-11-18 08:04:00,
2017-11-18 08:14:00,44.0,41.3,30.25,North,32767,0.0,0.0,90,0.00,,,0.00,30,Wunderground v.1.15,2017-11-18 08:14:00,
2017-11-18 08:24:00,44.2,41.5,30.26,North,32767,0.0,0.0,90,0.00,,,0.00,39,Wunderground v.1.15,2017-11-18 08:24:00,
2017-11-18 08:34:00,44.3,41.3,30.26,North,32767,0.0,0.0,89,0.00,,,0.00,37,Wunderground v.1.15,2017-11-18 08:34:00,
2017-11-18 08:44:00,44.6,41.6,30.25,North,32767,0.0,0.0,89,0.00,,,0.00,53,Wunderground v.1.15,2017-11-18 08:44:00,
2017-11-18 08:54:00,44.8,41.8,30.25,North,32767,0.0,0.0,89,0.00,,,0.00,76,Wunderground v.1.15,2017-11-18 08:54:00,
2017-11-18 09:04:00,45.0,42.0,30.25,North,32767,0.0,0.0,89,0.00,,,0.00,100,Wunderground v.1.15,2017-11-18 09:04:00,
2017-11-18 09:14:00,45.3,42.0,30.24,North,32767,0.0,0.0,88,0.00,,,0.00,79,Wunderground v.1.15,2017-11-18 09:14:00,
2017-11-18 09:24:00,45.6,42.5,30.24,North,32767,0.0,0.0,89,0.00,,,0.00,79,Wunderground v.1.15,2017-11-18 09:24:00,
2017-11-18 09:34:00,45.8,42.7,30.24,North,32767,0.0,0.0,89,0.00,,,0.00,77,Wunderground v.1.15,2017-11-18 09:34:00,
2017-11-18 09:44:00,46.1,43.3,30.23,North,32767,0.0,0.0,90,0.00,,,0.00,77,Wunderground v.1.15,2017-11-18 09:44:00,
2017-11-18 09:54:00,46.2,43.4,30.23,North,32767,0.0,0.0,90,0.00,,,0.00,70,Wunderground v.1.15,2017-11-18 09:54:00,
2017-11-18 10:04:00,46.2,43.4,30.23,North,32767,0.0,0.0,90,0.00,,,0.00,58,Wunderground v.1.15,2017-11-18 10:04:00,
2017-11-18 10:14:00,46.1,43.6,30.23,North,32767,0.0,0.0,91,0.00,,,0.00,44,Wunderground v.1.15,2017-11-18 10:14:00,
2017-11-18 10:34:00,46.1,43.6,30.23,North,32767,0.0,0.0,91,0.00,,,0.00,25,Wunderground v.1.15,2017-11-18 10:34:00,
2017-11-18 10:44:00,46.2,44.0,30.23,North,32767,0.0,0.0,92,0.00,,,0.00,26,Wunderground v.1.15,2017-11-18 10:44:00,
2017-11-18 10:54:00,46.2,44.0,30.23,North,32767,0.0,0.0,92,0.00,,,0.00,18,Wunderground v.1.15,2017-11-18 10:54:00,
2017-11-18 11:04:00,46.2,44.0,30.22,North,32767,0.0,0.0,92,0.00,,,0.00,18,Wunderground v.1.15,2017-11-18 11:04:00,
2017-11-18 11:14:00,46.3,44.1,30.22,North,32767,0.0,0.0,92,0.00,,,0.00,23,Wunderground v.1.15,2017-11-18 11:14:00,
2017-11-18 11:24:00,46.5,44.6,30.22,North,32767,0.0,0.0,93,0.00,,,0.00,26,Wunderground v.1.15,2017-11-18 11:24:00,